Time;durP1;ratioP1;P1;durP2;ratioP2;P2;SDS_P1;SDS_P2;PMS_P1;PMS_P2;Temp;Humidity;BMP_temperature;BMP_pressure;BME280_temperature;BME280_humidity;BME280_pressure;Samples;Min_cycle;Max_cycle;Signal;HPM_P1;HPM_P2
2023/02/18 00:06:45;;;;;;;88.38;39.03;;;1.20;99.90;;;;;;20903683;28;20036;-59
2023/02/18 00:16:47;;;;;;;31.33;15.38;;;1.20;99.90;;;;;;20896359;28;20029;-59
2023/02/18 00:26:52;;;;;;;39.10;18.10;;;1.20;99.90;;;;;;20902445;28;20045;-58
2023/02/18 00:36:53;;;;;;;33.03;14.82;;;1.40;99.90;;;;;;20909581;28;20386;-59
2023/02/18 00:46:55;;;;;;;37.25;17.77;;;1.60;99.90;;;;;;20857536;28;20037;-59
2023/02/18 00:56:56;;;;;;;39.85;16.83;;;1.90;99.90;;;;;;20887460;28;20541;-66
2023/02/18 01:06:58;;;;;;;33.85;16.25;;;1.90;99.90;;;;;;20909945;28;20106;-66
2023/02/18 01:17:00;;;;;;;33.42;16.30;;;2.20;99.90;;;;;;20909554;28;20436;-66
2023/02/18 01:27:01;;;;;;;31.27;14.48;;;2.10;99.90;;;;;;20907647;28;20082;-59
2023/02/18 01:37:03;;;;;;;33.55;13.75;;;1.80;99.90;;;;;;20907062;28;20102;-59
2023/02/18 01:47:04;;;;;;;34.78;13.82;;;1.70;99.90;;;;;;20905962;28;20041;-60
2023/02/18 01:57:20;;;;;;;33.30;13.40;;;1.80;99.90;;;;;;20906272;28;20141;-58
2023/02/18 02:07:24;;;;;;;50.08;23.90;;;1.90;99.90;;;;;;20905175;28;20037;-59
2023/02/18 02:17:47;;;;;;;32.95;13.95;;;1.70;99.90;;;;;;20904116;28;20083;-59
2023/02/18 02:28:01;;;;;;;22.77;9.43;;;1.50;99.90;;;;;;20904109;28;20544;-58
2023/02/18 02:38:44;;;;;;;29.08;13.07;;;1.50;99.90;;;;;;20903407;28;20037;-66
2023/02/18 02:49:06;;;;;;;53.60;24.70;;;1.50;99.90;;;;;;20901660;28;20083;-66
2023/02/18 02:59:18;;;;;;;48.88;21.55;;;1.50;99.90;;;;;;20901679;28;20106;-66
2023/02/18 03:09:39;;;;;;;54.50;24.55;;;1.50;99.90;;;;;;20901594;28;20041;-58
2023/02/18 03:20:11;;;;;;;16.98;6.82;;;1.40;99.90;;;;;;20915915;28;20478;-59
2023/02/18 03:30:20;;;;;;;17.67;8.93;;;1.40;99.90;;;;;;20900299;28;20498;-66
2023/02/18 03:40:22;;;;;;;14.68;5.40;;;1.60;99.90;;;;;;20916671;28;20422;-58
2023/02/18 03:50:23;;;;;;;9.73;4.15;;;1.60;99.90;;;;;;20917158;28;20033;-66
2023/02/18 04:00:25;;;;;;;8.18;2.55;;;1.60;99.90;;;;;;20914781;28;20044;-59
2023/02/18 04:10:27;;;;;;;4.75;1.92;;;1.70;99.90;;;;;;20912999;28;20045;-56
2023/02/18 04:20:29;;;;;;;6.15;2.03;;;1.90;99.90;;;;;;20909039;28;20037;-59
2023/02/18 04:30:30;;;;;;;6.50;1.83;;;2.10;99.90;;;;;;20909760;28;20098;-66
2023/02/18 04:40:32;;;;;;;4.50;1.60;;;2.30;99.90;;;;;;20890255;28;20041;-59
2023/02/18 04:50:34;;;;;;;3.80;1.52;;;2.20;99.90;;;;;;20906174;28;20033;-59
2023/02/18 05:00:36;;;;;;;5.30;1.63;;;2.00;99.90;;;;;;20905541;28;20033;-59
2023/02/18 05:10:38;;;;;;;12.18;5.53;;;1.80;99.90;;;;;;20862212;28;1313710;-59
2023/02/18 05:20:40;;;;;;;19.75;8.32;;;1.80;99.90;;;;;;20908360;28;20865;-66
2023/02/18 05:30:41;;;;;;;9.30;4.00;;;2.00;99.90;;;;;;20907705;28;20033;-59
2023/02/18 05:40:43;;;;;;;7.90;3.00;;;1.90;99.90;;;;;;20907320;28;20106;-59
2023/02/18 05:50:44;;;;;;;7.10;2.20;;;1.80;99.90;;;;;;20907547;28;20033;-58
2023/02/18 06:00:46;;;;;;;6.60;2.92;;;1.80;99.90;;;;;;20904697;28;20029;-59
2023/02/18 06:10:48;;;;;;;12.55;5.25;;;2.10;99.90;;;;;;20902975;28;20111;-57
2023/02/18 06:20:49;;;;;;;5.47;2.17;;;2.00;99.90;;;;;;20904837;28;20367;-56
2023/02/18 06:30:50;;;;;;;6.63;1.90;;;1.70;99.90;;;;;;20904201;28;20044;-59
2023/02/18 06:40:53;;;;;;;5.72;2.03;;;2.00;99.90;;;;;;20904079;28;20056;-66
2023/02/18 06:50:56;;;;;;;6.13;2.45;;;2.20;99.90;;;;;;20904343;28;20424;-66
2023/02/18 07:00:57;;;;;;;4.22;2.15;;;2.30;99.90;;;;;;20903334;28;20382;-59
2023/02/18 07:10:59;;;;;;;33.83;14.90;;;2.70;99.90;;;;;;20902198;28;20033;-66
2023/02/18 07:21:01;;;;;;;15.35;5.40;;;3.00;99.90;;;;;;20902726;28;20045;-56
2023/02/18 07:31:03;;;;;;;22.90;11.38;;;3.30;99.90;;;;;;20899937;28;20382;-58
2023/02/18 07:41:05;;;;;;;17.42;7.25;;;3.70;99.90;;;;;;20900431;28;20393;-58
2023/02/18 07:51:08;;;;;;;35.47;18.38;;;4.50;99.90;;;;;;20901869;28;20033;-59
2023/02/18 08:01:13;;;;;;;38.85;21.05;;;5.40;99.90;;;;;;20905878;28;20043;-59
2023/02/18 08:11:15;;;;;;;49.83;27.65;;;6.40;99.90;;;;;;20914365;28;20396;-66
2023/02/18 08:21:18;;;;;;;60.50;32.45;;;7.20;99.90;;;;;;20912607;28;20021;-67
2023/02/18 08:31:22;;;;;;;35.83;19.70;;;7.60;99.90;;;;;;20913563;28;20033;-66
2023/02/18 08:41:23;;;;;;;60.72;34.45;;;8.50;99.90;;;;;;20911535;28;20037;-66
2023/02/18 08:51:25;;;;;;;51.15;30.63;;;9.40;99.90;;;;;;20943080;28;20747;-58
2023/02/18 09:01:27;;;;;;;62.08;37.83;;;10.00;99.90;;;;;;20993395;28;20029;-59
2023/02/18 09:11:28;;;;;;;62.13;38.97;;;10.90;99.90;;;;;;20973892;28;20562;-59
2023/02/18 09:21:30;;;;;;;67.07;40.45;;;10.70;99.90;;;;;;20988929;28;20036;-59
2023/02/18 09:31:32;;;;;;;65.45;39.70;;;10.10;99.90;;;;;;20990087;28;20028;-57
2023/02/18 09:41:44;;;;;;;70.05;41.17;;;10.00;99.90;;;;;;20972524;28;20028;-64
2023/02/18 09:51:46;;;;;;;70.53;44.13;;;10.20;99.90;;;;;;20985264;28;20032;-57
2023/02/18 10:01:51;;;;;;;69.13;42.97;;;10.30;99.90;;;;;;20988259;28;20055;-56
2023/02/18 10:11:57;;;;;;;72.80;43.67;;;10.90;99.90;;;;;;20960378;28;20045;-65
2023/02/18 10:22:01;;;;;;;77.22;46.05;;;11.10;99.90;;;;;;20965227;28;20093;-58
2023/02/18 10:32:31;;;;;;;78.47;48.08;;;11.20;99.90;;;;;;20975667;28;20554;-59
2023/02/18 10:43:01;;;;;;;77.45;46.83;;;11.50;99.90;;;;;;20986555;28;20040;-66
2023/02/18 10:53:29;;;;;;;92.23;53.77;;;11.80;99.90;;;;;;20978152;28;20044;-60
2023/02/18 11:03:44;;;;;;;91.47;53.78;;;11.70;99.90;;;;;;20974056;28;20085;-66
2023/02/18 11:13:57;;;;;;;100.47;58.88;;;11.80;99.90;;;;;;20980204;28;20474;-59
2023/02/18 11:24:07;;;;;;;96.90;55.05;;;11.40;99.90;;;;;;20979984;28;20033;-58
2023/02/18 11:34:28;;;;;;;97.30;57.05;;;11.70;99.90;;;;;;20986565;28;20112;-58
2023/02/18 11:44:48;;;;;;;95.57;58.28;;;11.90;99.90;;;;;;20984340;28;20081;-58
2023/02/18 11:55:07;;;;;;;99.13;58.10;;;11.60;99.90;;;;;;20994993;28;20029;-58
2023/02/18 12:05:19;;;;;;;96.35;57.53;;;11.90;99.90;;;;;;20996285;28;20040;-59
2023/02/18 12:15:31;;;;;;;103.07;60.25;;;12.00;99.90;;;;;;20995832;28;20111;-65
2023/02/18 12:25:38;;;;;;;95.18;57.22;;;11.80;99.90;;;;;;20969523;28;20033;-65
2023/02/18 12:35:46;;;;;;;91.93;53.25;;;11.80;99.90;;;;;;20992633;28;20062;-57
2023/02/18 12:46:20;;;;;;;93.18;55.70;;;11.80;99.90;;;;;;20994337;28;20028;-61
2023/02/18 12:56:46;;;;;;;89.13;53.40;;;12.10;99.90;;;;;;20992308;28;20370;-58
2023/02/18 13:07:00;;;;;;;88.47;53.40;;;12.20;99.90;;;;;;20974411;28;20402;-58
2023/02/18 13:17:04;;;;;;;92.65;57.47;;;12.50;99.90;;;;;;20992332;28;20036;-64
2023/02/18 13:27:18;;;;;;;92.63;55.45;;;12.70;99.90;;;;;;20984852;28;20036;-59
2023/02/18 13:37:36;;;;;;;89.00;54.08;;;12.00;99.90;;;;;;20973665;28;20040;-60
2023/02/18 13:47:41;;;;;;;94.00;55.55;;;11.80;99.90;;;;;;20981702;28;20040;-60
2023/02/18 13:57:52;;;;;;;105.60;60.85;;;11.40;99.90;;;;;;20984002;28;20495;-59
2023/02/18 14:08:11;;;;;;;99.80;60.33;;;10.60;99.90;;;;;;20985399;28;20049;-66
2023/02/18 14:18:13;;;;;;;108.80;62.27;;;10.10;99.90;;;;;;20985908;28;20041;-59
2023/02/18 14:28:33;;;;;;;98.63;57.40;;;10.00;99.90;;;;;;20964957;28;20046;-60
2023/02/18 14:39:10;;;;;;;106.03;60.33;;;9.60;99.90;;;;;;20982345;28;20347;-58
2023/02/18 14:49:39;;;;;;;100.05;57.72;;;9.10;99.90;;;;;;20984067;28;20041;-66
2023/02/18 14:59:41;;;;;;;112.53;62.03;;;8.30;99.90;;;;;;20983386;28;20032;-66
2023/02/18 15:09:53;;;;;;;119.15;64.50;;;7.80;99.90;;;;;;20969527;28;20540;-60
2023/02/18 15:19:58;;;;;;;131.77;72.10;;;7.60;99.90;;;;;;20995176;28;20474;-60
2023/02/18 15:30:12;;;;;;;135.18;73.22;;;7.10;99.90;;;;;;20996184;28;20029;-67
2023/02/18 15:40:15;;;;;;;131.30;70.32;;;6.60;99.90;;;;;;20982173;28;20029;-67
2023/02/18 15:50:29;;;;;;;149.50;77.15;;;6.20;99.90;;;;;;20999259;28;20025;-67
2023/02/18 16:00:47;;;;;;;137.55;73.50;;;6.10;99.90;;;;;;20985059;28;20036;-60
2023/02/18 16:11:16;;;;;;;143.10;73.20;;;5.70;99.90;;;;;;20952135;28;20114;-67
2023/02/18 16:21:17;;;;;;;163.75;81.30;;;5.40;99.90;;;;;;20971030;28;20569;-67
2023/02/18 16:31:20;;;;;;;159.77;78.57;;;5.10;99.90;;;;;;20977499;28;20480;-60
2023/02/18 16:41:21;;;;;;;169.27;79.22;;;4.70;99.90;;;;;;20962979;28;20389;-66
2023/02/18 16:51:29;;;;;;;166.38;78.43;;;4.30;99.90;;;;;;20980505;28;20701;-66
2023/02/18 17:01:37;;;;;;;183.18;85.28;;;3.70;99.90;;;;;;20993574;28;20032;-60
2023/02/18 17:11:38;;;;;;;173.15;76.72;;;3.30;99.90;;;;;;20990517;28;20071;-59
2023/02/18 17:21:41;;;;;;;168.80;72.82;;;3.00;99.90;;;;;;20977084;28;20120;-62
2023/02/18 17:31:45;;;;;;;232.10;93.53;;;2.60;99.90;;;;;;20978103;28;20090;-66
2023/02/18 17:41:47;;;;;;;300.88;107.10;;;2.80;99.90;;;;;;20953073;28;20393;-67
2023/02/18 17:51:49;;;;;;;258.55;100.95;;;3.10;99.90;;;;;;20973110;28;20037;-66
2023/02/18 18:01:51;;;;;;;263.50;102.30;;;3.00;99.90;;;;;;20978577;28;20116;-66
2023/02/18 18:11:52;;;;;;;192.93;81.68;;;2.90;99.90;;;;;;20981455;28;20045;-59
2023/02/18 18:21:54;;;;;;;157.90;67.00;;;2.60;99.90;;;;;;20977847;28;20036;-60
2023/02/18 18:31:55;;;;;;;126.63;54.42;;;2.20;99.90;;;;;;20979334;28;20098;-60
2023/02/18 18:41:58;;;;;;;158.73;65.10;;;2.00;99.90;;;;;;20976321;28;20036;-59
2023/02/18 18:52:00;;;;;;;155.02;59.38;;;2.00;99.90;;;;;;20980844;28;20032;-59
2023/02/18 19:02:01;;;;;;;159.98;62.22;;;1.90;99.90;;;;;;20985138;28;20033;-59
2023/02/18 19:12:03;;;;;;;146.57;55.75;;;1.80;99.90;;;;;;20978218;28;20452;-59
2023/02/18 19:22:05;;;;;;;143.23;58.45;;;1.70;99.90;;;;;;20974424;28;20036;-66
2023/02/18 19:32:06;;;;;;;138.45;54.10;;;1.70;99.90;;;;;;20982779;28;20106;-66
2023/02/18 19:42:08;;;;;;;145.43;57.28;;;1.50;99.90;;;;;;20969439;28;20086;-59
2023/02/18 19:52:10;;;;;;;155.55;61.55;;;1.40;99.90;;;;;;20980890;28;20059;-60
2023/02/18 20:02:18;;;;;;;142.07;55.50;;;1.60;99.90;;;;;;20998005;28;20037;-66
2023/02/18 20:12:20;;;;;;;128.05;54.13;;;1.50;99.90;;;;;;20989950;28;20044;-59
2023/02/18 20:22:22;;;;;;;170.30;64.57;;;1.50;99.90;;;;;;20967079;28;20033;-66
2023/02/18 20:32:23;;;;;;;167.65;64.40;;;1.90;99.90;;;;;;20986253;28;20105;-59
2023/02/18 20:42:25;;;;;;;138.30;57.55;;;2.00;99.90;;;;;;20993536;28;20032;-66
2023/02/18 20:52:27;;;;;;;152.07;60.28;;;1.60;99.90;;;;;;20987060;28;20044;-66
2023/02/18 21:02:28;;;;;;;204.10;71.05;;;1.70;99.90;;;;;;20982635;28;20090;-59
2023/02/18 21:12:30;;;;;;;181.35;65.65;;;2.00;99.90;;;;;;20988088;28;20562;-59
2023/02/18 21:22:31;;;;;;;167.07;62.92;;;2.40;99.90;;;;;;20987195;28;20437;-59
2023/02/18 21:32:33;;;;;;;196.40;68.57;;;2.40;99.90;;;;;;20982469;28;20394;-59
2023/02/18 21:42:35;;;;;;;181.25;67.03;;;2.50;99.90;;;;;;20984422;28;20559;-59
2023/02/18 21:52:37;;;;;;;223.68;67.38;;;2.60;99.90;;;;;;20984481;28;20443;-66
2023/02/18 22:02:39;;;;;;;135.32;55.55;;;2.70;99.90;;;;;;20988623;28;20032;-58
2023/02/18 22:12:40;;;;;;;117.55;51.35;;;2.50;99.90;;;;;;20984859;28;20486;-58
2023/02/18 22:22:42;;;;;;;194.63;64.53;;;2.30;99.90;;;;;;20953877;28;20066;-58
2023/02/18 22:32:43;;;;;;;128.48;51.85;;;2.50;99.90;;;;;;20986595;28;20196;-58
2023/02/18 22:42:45;;;;;;;135.52;49.95;;;2.40;99.90;;;;;;20956928;28;20028;-59
2023/02/18 22:52:47;;;;;;;90.68;41.33;;;2.00;99.90;;;;;;20984959;28;20090;-58
2023/02/18 23:02:52;;;;;;;137.30;52.95;;;1.60;99.90;;;;;;20985215;28;20032;-59
2023/02/18 23:12:54;;;;;;;153.32;57.95;;;1.50;99.90;;;;;;20978599;28;20514;-59
2023/02/18 23:22:55;;;;;;;119.45;48.38;;;1.60;99.90;;;;;;20973902;28;20401;-58
2023/02/18 23:32:57;;;;;;;123.57;50.00;;;1.40;99.90;;;;;;20973974;28;20138;-66
2023/02/18 23:42:58;;;;;;;205.45;66.38;;;1.40;99.90;;;;;;20999887;28;20028;-66
2023/02/18 23:53:00;;;;;;;265.13;62.15;;;1.70;99.90;;;;;;20993049;28;20041;-66
